sensor_id;sensor_type;location;lat;lon;timestamp;pressure;altitude;pressure_sealevel;temperature;humidity
30708;BME280;17458;48.958;8.284;2022-08-25T00:01:27;100308.91;;;22.61;58.96
30708;BME280;17458;48.958;8.284;2022-08-25T00:04:12;100299.91;;;22.55;59.05
30708;BME280;17458;48.958;8.284;2022-08-25T00:06:57;100306.22;;;22.45;59.36
30708;BME280;17458;48.958;8.284;2022-08-25T00:09:41;100302.59;;;22.50;59.08
30708;BME280;17458;48.958;8.284;2022-08-25T00:12:25;100312.56;;;22.56;58.92
30708;BME280;17458;48.958;8.284;2022-08-25T00:15:09;100309.84;;;22.51;59.12
30708;BME280;17458;48.958;8.284;2022-08-25T00:17:54;100299.91;;;22.52;59.31
30708;BME280;17458;48.958;8.284;2022-08-25T00:20:38;100300.81;;;22.39;59.82
30708;BME280;17458;48.958;8.284;2022-08-25T00:23:22;100312.53;;;22.39;59.87
30708;BME280;17458;48.958;8.284;2022-08-25T00:26:08;100317.91;;;22.27;60.58
30708;BME280;17458;48.958;8.284;2022-08-25T00:28:52;100315.13;;;22.04;61.40
30708;BME280;17458;48.958;8.284;2022-08-25T00:31:37;100316.06;;;22.08;61.54
30708;BME280;17458;48.958;8.284;2022-08-25T00:34:26;100323.25;;;22.00;61.85
30708;BME280;17458;48.958;8.284;2022-08-25T00:37:10;100317.75;;;21.81;62.56
30708;BME280;17458;48.958;8.284;2022-08-25T00:39:54;100324.03;;;21.74;62.81
30708;BME280;17458;48.958;8.284;2022-08-25T00:42:41;100324.94;;;21.73;62.93
30708;BME280;17458;48.958;8.284;2022-08-25T00:45:25;100331.25;;;21.75;62.94
30708;BME280;17458;48.958;8.284;2022-08-25T00:48:09;100324.03;;;21.74;63.27
30708;BME280;17458;48.958;8.284;2022-08-25T00:50:53;100321.31;;;21.73;62.83
30708;BME280;17458;48.958;8.284;2022-08-25T00:53:38;100315.91;;;21.76;62.79
30708;BME280;17458;48.958;8.284;2022-08-25T00:56:23;100320.47;;;21.84;62.51
30708;BME280;17458;48.958;8.284;2022-08-25T00:59:08;100322.28;;;21.87;62.50
30708;BME280;17458;48.958;8.284;2022-08-25T01:01:54;100318.66;;;21.91;62.34
30708;BME280;17458;48.958;8.284;2022-08-25T01:04:38;100315.97;;;21.88;62.51
30708;BME280;17458;48.958;8.284;2022-08-25T01:07:22;100324.97;;;21.84;62.72
30708;BME280;17458;48.958;8.284;2022-08-25T01:10:07;100319.53;;;21.81;62.58
30708;BME280;17458;48.958;8.284;2022-08-25T01:12:57;100328.56;;;21.81;62.51
30708;BME280;17458;48.958;8.284;2022-08-25T01:15:47;100327.75;;;21.99;62.16
30708;BME280;17458;48.958;8.284;2022-08-25T01:18:53;100328.69;;;22.03;61.85
30708;BME280;17458;48.958;8.284;2022-08-25T01:21:44;100340.31;;;21.96;62.10
30708;BME280;17458;48.958;8.284;2022-08-25T01:27:25;100339.38;;;21.75;62.81
30708;BME280;17458;48.958;8.284;2022-08-25T01:30:09;100340.28;;;21.83;62.54
30708;BME280;17458;48.958;8.284;2022-08-25T01:32:53;100335.72;;;21.76;62.88
30708;BME280;17458;48.958;8.284;2022-08-25T01:35:39;100328.53;;;21.77;62.79
30708;BME280;17458;48.958;8.284;2022-08-25T01:38:23;100329.41;;;21.70;62.91
30708;BME280;17458;48.958;8.284;2022-08-25T01:41:07;100328.47;;;21.63;63.04
30708;BME280;17458;48.958;8.284;2022-08-25T01:43:51;100320.38;;;21.65;63.05
30708;BME280;17458;48.958;8.284;2022-08-25T01:46:35;100324.88;;;21.61;63.19
30708;BME280;17458;48.958;8.284;2022-08-25T01:49:20;100325.84;;;21.74;62.69
30708;BME280;17458;48.958;8.284;2022-08-25T01:52:23;100330.38;;;21.84;62.44
30708;BME280;17458;48.958;8.284;2022-08-25T01:55:07;100324.97;;;21.84;62.39
30708;BME280;17458;48.958;8.284;2022-08-25T01:57:51;100327.69;;;21.90;62.11
30708;BME280;17458;48.958;8.284;2022-08-25T02:00:36;100328.59;;;21.95;62.28
30708;BME280;17458;48.958;8.284;2022-08-25T02:03:20;100333.13;;;21.96;62.07
30708;BME280;17458;48.958;8.284;2022-08-25T02:06:04;100339.50;;;22.03;61.81
30708;BME280;17458;48.958;8.284;2022-08-25T02:08:54;100339.44;;;21.95;62.04
30708;BME280;17458;48.958;8.284;2022-08-25T02:11:41;100339.41;;;21.86;62.30
30708;BME280;17458;48.958;8.284;2022-08-25T02:14:25;100334.91;;;21.91;62.20
30708;BME280;17458;48.958;8.284;2022-08-25T02:17:09;100329.47;;;21.83;62.35
30708;BME280;17458;48.958;8.284;2022-08-25T02:19:53;100333.03;;;21.78;62.71
30708;BME280;17458;48.958;8.284;2022-08-25T02:22:39;100323.00;;;21.51;63.68
30708;BME280;17458;48.958;8.284;2022-08-25T02:25:23;100328.47;;;21.57;63.75
30708;BME280;17458;48.958;8.284;2022-08-25T02:28:07;100320.38;;;21.66;63.33
30708;BME280;17458;48.958;8.284;2022-08-25T02:30:51;100321.31;;;21.70;63.35
30708;BME280;17458;48.958;8.284;2022-08-25T02:33:36;100322.25;;;21.82;62.93
30708;BME280;17458;48.958;8.284;2022-08-25T02:36:21;100324.06;;;21.85;62.73
30708;BME280;17458;48.958;8.284;2022-08-25T02:39:07;100321.41;;;21.96;62.49
30708;BME280;17458;48.958;8.284;2022-08-25T02:41:53;100324.16;;;22.00;62.37
30708;BME280;17458;48.958;8.284;2022-08-25T02:44:37;100316.00;;;21.97;62.68
30708;BME280;17458;48.958;8.284;2022-08-25T02:47:21;100314.16;;;21.91;62.74
30708;BME280;17458;48.958;8.284;2022-08-25T02:50:06;100307.03;;;22.06;62.38
30708;BME280;17458;48.958;8.284;2022-08-25T02:52:50;100313.31;;;21.99;62.73
30708;BME280;17458;48.958;8.284;2022-08-25T02:55:35;100320.50;;;21.98;62.75
30708;BME280;17458;48.958;8.284;2022-08-25T02:58:19;100309.69;;;21.98;62.70
30708;BME280;17458;48.958;8.284;2022-08-25T03:01:05;100318.78;;;22.11;62.46
30708;BME280;17458;48.958;8.284;2022-08-25T03:03:50;100316.06;;;22.00;62.72
30708;BME280;17458;48.958;8.284;2022-08-25T03:06:35;100323.25;;;22.07;62.48
30708;BME280;17458;48.958;8.284;2022-08-25T03:09:19;100313.38;;;22.03;62.43
30708;BME280;17458;48.958;8.284;2022-08-25T03:12:03;100314.16;;;21.82;63.13
30708;BME280;17458;48.958;8.284;2022-08-25T03:14:47;100315.03;;;21.75;63.41
30708;BME280;17458;48.958;8.284;2022-08-25T03:17:31;100320.34;;;21.57;64.03
30708;BME280;17458;48.958;8.284;2022-08-25T03:20:16;100315.78;;;21.48;64.48
30708;BME280;17458;48.958;8.284;2022-08-25T03:23:04;100318.28;;;21.16;65.65
30708;BME280;17458;48.958;8.284;2022-08-25T03:25:49;100309.25;;;21.13;65.87
30708;BME280;17458;48.958;8.284;2022-08-25T03:28:52;100317.19;;;20.93;66.72
30708;BME280;17458;48.958;8.284;2022-08-25T03:31:38;100310.88;;;20.86;67.13
30708;BME280;17458;48.958;8.284;2022-08-25T03:34:23;100304.56;;;20.86;67.02
30708;BME280;17458;48.958;8.284;2022-08-25T03:37:08;100298.28;;;20.87;67.04
30708;BME280;17458;48.958;8.284;2022-08-25T03:39:52;100291.91;;;20.82;67.32
30708;BME280;17458;48.958;8.284;2022-08-25T03:42:44;100287.34;;;20.70;67.87
30708;BME280;17458;48.958;8.284;2022-08-25T03:45:29;100283.81;;;20.80;67.29
30708;BME280;17458;48.958;8.284;2022-08-25T03:48:13;100291.66;;;20.50;68.69
30708;BME280;17458;48.958;8.284;2022-08-25T03:50:58;100299.88;;;20.61;68.27
30708;BME280;17458;48.958;8.284;2022-08-25T03:53:42;100297.06;;;20.51;68.49
30708;BME280;17458;48.958;8.284;2022-08-25T03:56:26;100290.75;;;20.48;68.59
30708;BME280;17458;48.958;8.284;2022-08-25T03:59:11;100294.38;;;20.51;68.67
30708;BME280;17458;48.958;8.284;2022-08-25T04:01:55;100296.19;;;20.54;68.41
30708;BME280;17458;48.958;8.284;2022-08-25T04:04:39;100296.16;;;20.48;68.63
30708;BME280;17458;48.958;8.284;2022-08-25T04:07:23;100304.97;;;20.33;68.89
30708;BME280;17458;48.958;8.284;2022-08-25T04:10:08;100312.31;;;20.45;68.61
30708;BME280;17458;48.958;8.284;2022-08-25T04:12:53;100310.38;;;20.35;69.01
30708;BME280;17458;48.958;8.284;2022-08-25T04:15:42;100310.50;;;20.44;68.71
30708;BME280;17458;48.958;8.284;2022-08-25T04:18:26;100315.94;;;20.51;68.38
30708;BME280;17458;48.958;8.284;2022-08-25T04:21:11;100314.09;;;20.44;68.57
30708;BME280;17458;48.958;8.284;2022-08-25T04:23:56;100321.25;;;20.41;68.57
30708;BME280;17458;48.958;8.284;2022-08-25T04:26:58;100312.38;;;20.54;68.54
30708;BME280;17458;48.958;8.284;2022-08-25T04:29:42;100307.78;;;20.44;68.32
30708;BME280;17458;48.958;8.284;2022-08-25T04:32:26;100316.66;;;20.35;68.91
30708;BME280;17458;48.958;8.284;2022-08-25T04:35:10;100321.28;;;20.44;68.63
30708;BME280;17458;48.958;8.284;2022-08-25T04:37:54;100323.94;;;20.39;68.86
30708;BME280;17458;48.958;8.284;2022-08-25T04:40:38;100315.72;;;20.30;69.36
30708;BME280;17458;48.958;8.284;2022-08-25T04:43:22;100315.78;;;20.35;69.41
30708;BME280;17458;48.958;8.284;2022-08-25T04:46:09;100304.03;;;20.30;69.56
30708;BME280;17458;48.958;8.284;2022-08-25T04:48:57;100297.56;;;20.12;70.15
30708;BME280;17458;48.958;8.284;2022-08-25T04:51:42;100299.47;;;20.21;70.07
30708;BME280;17458;48.958;8.284;2022-08-25T04:54:26;100298.53;;;20.17;70.25
30708;BME280;17458;48.958;8.284;2022-08-25T04:57:11;100300.31;;;20.17;70.36
30708;BME280;17458;48.958;8.284;2022-08-25T04:59:55;100302.94;;;20.11;70.52
30708;BME280;17458;48.958;8.284;2022-08-25T05:02:39;100294.97;;;20.23;70.53
30708;BME280;17458;48.958;8.284;2022-08-25T05:05:24;100296.00;;;20.36;69.93
30708;BME280;17458;48.958;8.284;2022-08-25T05:08:08;100294.47;;;20.61;69.10
30708;BME280;17458;48.958;8.284;2022-08-25T05:10:52;100299.19;;;20.94;67.87
30708;BME280;17458;48.958;8.284;2022-08-25T05:13:37;100299.03;;;20.69;68.21
30708;BME280;17458;48.958;8.284;2022-08-25T05:16:24;100307.13;;;20.71;68.43
30708;BME280;17458;48.958;8.284;2022-08-25T05:19:08;100310.84;;;20.85;68.38
30708;BME280;17458;48.958;8.284;2022-08-25T05:21:53;100311.94;;;21.13;67.38
30708;BME280;17458;48.958;8.284;2022-08-25T05:24:37;100322.97;;;21.48;66.30
30708;BME280;17458;48.958;8.284;2022-08-25T05:27:21;100322.25;;;21.84;64.76
30708;BME280;17458;48.958;8.284;2022-08-25T05:30:05;100324.97;;;21.85;64.95
30708;BME280;17458;48.958;8.284;2022-08-25T05:32:50;100321.47;;;22.03;64.20
30708;BME280;17458;48.958;8.284;2022-08-25T05:35:34;100317.69;;;21.68;64.79
30708;BME280;17458;48.958;8.284;2022-08-25T05:38:19;100310.34;;;21.39;65.77
30708;BME280;17458;48.958;8.284;2022-08-25T05:41:05;100315.72;;;21.38;66.07
30708;BME280;17458;48.958;8.284;2022-08-25T05:43:49;100317.53;;;21.39;66.33
30708;BME280;17458;48.958;8.284;2022-08-25T05:46:33;100314.00;;;21.52;66.23
30708;BME280;17458;48.958;8.284;2022-08-25T05:49:17;100307.81;;;21.73;65.24
30708;BME280;17458;48.958;8.284;2022-08-25T05:52:01;100311.38;;;21.66;65.45
30708;BME280;17458;48.958;8.284;2022-08-25T05:54:46;100298.81;;;21.80;64.79
30708;BME280;17458;48.958;8.284;2022-08-25T05:57:30;100296.09;;;21.77;65.36
30708;BME280;17458;48.958;8.284;2022-08-25T06:00:15;100287.22;;;22.08;64.09
30708;BME280;17458;48.958;8.284;2022-08-25T06:03:00;100284.50;;;22.08;64.00
30708;BME280;17458;48.958;8.284;2022-08-25T06:05:44;100298.03;;;22.19;63.96
30708;BME280;17458;48.958;8.284;2022-08-25T06:08:28;100299.00;;;22.48;63.15
30708;BME280;17458;48.958;8.284;2022-08-25T06:11:15;100291.78;;;22.66;62.73
30708;BME280;17458;48.958;8.284;2022-08-25T06:13:59;100294.53;;;22.94;61.75
30708;BME280;17458;48.958;8.284;2022-08-25T06:16:43;100290.84;;;23.26;60.68
30708;BME280;17458;48.958;8.284;2022-08-25T06:19:27;100292.72;;;22.96;61.56
30708;BME280;17458;48.958;8.284;2022-08-25T06:22:10;100295.38;;;23.19;61.20
30708;BME280;17458;48.958;8.284;2022-08-25T06:24:55;100283.63;;;23.22;60.65
30708;BME280;17458;48.958;8.284;2022-08-25T06:27:39;100280.94;;;23.23;60.80
30708;BME280;17458;48.958;8.284;2022-08-25T06:30:23;100283.72;;;22.87;61.32
30708;BME280;17458;48.958;8.284;2022-08-25T06:33:07;100288.22;;;23.00;61.25
30708;BME280;17458;48.958;8.284;2022-08-25T06:35:53;100273.66;;;23.34;60.74
30708;BME280;17458;48.958;8.284;2022-08-25T06:38:38;100278.97;;;23.73;59.15
30708;BME280;17458;48.958;8.284;2022-08-25T06:41:22;100270.72;;;23.92;58.98
30708;BME280;17458;48.958;8.284;2022-08-25T06:44:08;100277.88;;;24.07;57.91
30708;BME280;17458;48.958;8.284;2022-08-25T06:46:54;100278.66;;;24.33;57.34
30708;BME280;17458;48.958;8.284;2022-08-25T06:49:38;100276.88;;;24.22;57.68
30708;BME280;17458;48.958;8.284;2022-08-25T06:52:23;100287.56;;;24.54;57.43
30708;BME280;17458;48.958;8.284;2022-08-25T06:55:07;100289.19;;;24.73;55.99
30708;BME280;17458;48.958;8.284;2022-08-25T06:57:52;100278.72;;;24.24;56.52
30708;BME280;17458;48.958;8.284;2022-08-25T07:00:37;100274.94;;;24.44;57.22
30708;BME280;17458;48.958;8.284;2022-08-25T07:03:21;100279.06;;;24.92;56.20
30708;BME280;17458;48.958;8.284;2022-08-25T07:06:06;100280.59;;;25.23;55.20
30708;BME280;17458;48.958;8.284;2022-08-25T07:08:51;100278.50;;;25.47;54.05
30708;BME280;17458;48.958;8.284;2022-08-25T07:11:35;100271.28;;;25.44;53.82
30708;BME280;17458;48.958;8.284;2022-08-25T07:14:20;100280.56;;;25.26;54.36
30708;BME280;17458;48.958;8.284;2022-08-25T07:17:04;100271.13;;;25.58;54.23
30708;BME280;17458;48.958;8.284;2022-08-25T07:19:49;100266.56;;;25.64;53.81
30708;BME280;17458;48.958;8.284;2022-08-25T07:22:32;100273.19;;;25.37;53.81
30708;BME280;17458;48.958;8.284;2022-08-25T07:25:17;100276.34;;;25.79;53.12
30708;BME280;17458;48.958;8.284;2022-08-25T07:28:03;100273.75;;;25.68;53.53
30708;BME280;17458;48.958;8.284;2022-08-25T07:30:49;100277.06;;;25.92;52.64
30708;BME280;17458;48.958;8.284;2022-08-25T07:33:34;100277.78;;;26.04;52.77
30708;BME280;17458;48.958;8.284;2022-08-25T07:36:18;100276.00;;;26.02;52.82
30708;BME280;17458;48.958;8.284;2022-08-25T07:39:03;100271.09;;;26.27;52.65
30708;BME280;17458;48.958;8.284;2022-08-25T07:41:49;100276.06;;;26.59;51.44
30708;BME280;17458;48.958;8.284;2022-08-25T07:44:33;100274.50;;;26.44;51.56
30708;BME280;17458;48.958;8.284;2022-08-25T07:47:16;100280.19;;;26.84;50.76
30708;BME280;17458;48.958;8.284;2022-08-25T07:50:00;100276.22;;;27.05;50.49
30708;BME280;17458;48.958;8.284;2022-08-25T07:52:45;100286.25;;;27.01;50.30
30708;BME280;17458;48.958;8.284;2022-08-25T07:55:30;100283.81;;;26.84;50.98
30708;BME280;17458;48.958;8.284;2022-08-25T07:58:14;100279.78;;;26.53;51.00
30708;BME280;17458;48.958;8.284;2022-08-25T08:00:58;100270.00;;;26.95;50.64
30708;BME280;17458;48.958;8.284;2022-08-25T08:03:42;100276.09;;;27.09;50.86
30708;BME280;17458;48.958;8.284;2022-08-25T08:06:27;100280.84;;;27.00;50.64
30708;BME280;17458;48.958;8.284;2022-08-25T08:09:11;100279.91;;;27.02;50.60
30708;BME280;17458;48.958;8.284;2022-08-25T08:11:56;100286.72;;;27.25;49.96
30708;BME280;17458;48.958;8.284;2022-08-25T08:14:40;100291.94;;;26.86;50.33
30708;BME280;17458;48.958;8.284;2022-08-25T08:17:24;100283.66;;;27.43;49.38
30708;BME280;17458;48.958;8.284;2022-08-25T08:20:09;100287.91;;;27.59;49.10
30708;BME280;17458;48.958;8.284;2022-08-25T08:22:54;100286.72;;;27.72;48.97
30708;BME280;17458;48.958;8.284;2022-08-25T08:25:38;100294.97;;;28.11;48.30
30708;BME280;17458;48.958;8.284;2022-08-25T08:28:22;100283.75;;;28.25;47.87
30708;BME280;17458;48.958;8.284;2022-08-25T08:31:10;100284.59;;;28.65;46.80
30708;BME280;17458;48.958;8.284;2022-08-25T08:33:55;100277.25;;;28.32;47.39
30708;BME280;17458;48.958;8.284;2022-08-25T08:36:40;100289.78;;;28.77;46.20
30708;BME280;17458;48.958;8.284;2022-08-25T08:39:25;100288.63;;;28.87;46.20
30708;BME280;17458;48.958;8.284;2022-08-25T08:45:37;100270.94;;;29.02;45.05
30708;BME280;17458;48.958;8.284;2022-08-25T08:51:16;100274.94;;;28.89;44.92
30708;BME280;17458;48.958;8.284;2022-08-25T08:54:12;100272.63;;;29.40;43.93
30708;BME280;17458;48.958;8.284;2022-08-25T08:57:08;100258.56;;;29.54;44.28
30708;BME280;17458;48.958;8.284;2022-08-25T08:59:59;100259.41;;;29.56;44.59
30708;BME280;17458;48.958;8.284;2022-08-25T09:03:00;100257.13;;;30.03;43.83
30708;BME280;17458;48.958;8.284;2022-08-25T09:05:50;100252.81;;;29.92;43.22
30708;BME280;17458;48.958;8.284;2022-08-25T09:08:36;100254.56;;;29.96;43.35
30708;BME280;17458;48.958;8.284;2022-08-25T09:14:48;100255.41;;;29.99;43.04
30708;BME280;17458;48.958;8.284;2022-08-25T09:20:46;100247.13;;;30.02;43.17
30708;BME280;17458;48.958;8.284;2022-08-25T09:24:05;100245.81;;;30.13;41.78
30708;BME280;17458;48.958;8.284;2022-08-25T09:27:28;100249.56;;;30.11;42.14
30708;BME280;17458;48.958;8.284;2022-08-25T09:30:20;100253.13;;;30.70;41.55
30708;BME280;17458;48.958;8.284;2022-08-25T09:33:05;100240.50;;;30.91;40.42
30708;BME280;17458;48.958;8.284;2022-08-25T09:35:51;100234.69;;;31.00;40.19
30708;BME280;17458;48.958;8.284;2022-08-25T09:38:36;100244.19;;;30.63;40.17
30708;BME280;17458;48.958;8.284;2022-08-25T09:44:31;100224.06;;;30.37;41.62
30708;BME280;17458;48.958;8.284;2022-08-25T09:47:26;100226.22;;;30.55;40.49
30708;BME280;17458;48.958;8.284;2022-08-25T09:50:18;100217.78;;;30.87;40.50
30708;BME280;17458;48.958;8.284;2022-08-25T09:53:13;100213.72;;;30.99;39.43
30708;BME280;17458;48.958;8.284;2022-08-25T09:56:02;100210.63;;;30.83;39.40
30708;BME280;17458;48.958;8.284;2022-08-25T09:58:49;100206.88;;;30.86;39.13
30708;BME280;17458;48.958;8.284;2022-08-25T10:01:55;100204.22;;;30.83;39.61
30708;BME280;17458;48.958;8.284;2022-08-25T10:04:40;100206.06;;;30.82;38.70
30708;BME280;17458;48.958;8.284;2022-08-25T10:07:32;100204.19;;;31.09;38.98
30708;BME280;17458;48.958;8.284;2022-08-25T10:13:17;100207.56;;;31.17;38.66
30708;BME280;17458;48.958;8.284;2022-08-25T10:16:09;100202.41;;;31.33;39.02
30708;BME280;17458;48.958;8.284;2022-08-25T10:19:10;100178.81;;;31.02;38.47
30708;BME280;17458;48.958;8.284;2022-08-25T10:22:21;100191.88;;;30.43;39.61
30708;BME280;17458;48.958;8.284;2022-08-25T10:25:09;100191.19;;;30.89;38.81
30708;BME280;17458;48.958;8.284;2022-08-25T10:40:15;100174.00;;;31.34;37.66
30708;BME280;17458;48.958;8.284;2022-08-25T10:43:06;100170.72;;;31.24;38.09
30708;BME280;17458;48.958;8.284;2022-08-25T10:46:05;100168.47;;;31.59;37.25
30708;BME280;17458;48.958;8.284;2022-08-25T10:52:00;100161.22;;;31.58;37.07
30708;BME280;17458;48.958;8.284;2022-08-25T10:55:00;100150.78;;;31.19;37.90
30708;BME280;17458;48.958;8.284;2022-08-25T10:58:12;100149.78;;;31.22;37.20
30708;BME280;17458;48.958;8.284;2022-08-25T11:01:10;100144.63;;;31.38;37.08
30708;BME280;17458;48.958;8.284;2022-08-25T11:07:11;100139.00;;;31.41;37.23
30708;BME280;17458;48.958;8.284;2022-08-25T11:10:11;100144.69;;;31.83;36.61
30708;BME280;17458;48.958;8.284;2022-08-25T11:12:59;100130.00;;;31.37;37.14
30708;BME280;17458;48.958;8.284;2022-08-25T11:15:52;100129.66;;;31.69;36.70
30708;BME280;17458;48.958;8.284;2022-08-25T11:19:04;100138.84;;;32.14;36.39
30708;BME280;17458;48.958;8.284;2022-08-25T11:25:18;100141.44;;;32.17;36.04
30708;BME280;17458;48.958;8.284;2022-08-25T11:28:11;100133.22;;;32.38;36.15
30708;BME280;17458;48.958;8.284;2022-08-25T11:30:58;100130.94;;;32.28;35.50
30708;BME280;17458;48.958;8.284;2022-08-25T11:33:43;100123.53;;;32.06;35.53
30708;BME280;17458;48.958;8.284;2022-08-25T11:36:33;100118.31;;;31.55;36.56
30708;BME280;17458;48.958;8.284;2022-08-25T11:39:47;100108.88;;;31.86;36.07
30708;BME280;17458;48.958;8.284;2022-08-25T11:42:47;100106.19;;;31.84;36.11
30708;BME280;17458;48.958;8.284;2022-08-25T11:51:46;100092.81;;;31.97;36.44
30708;BME280;17458;48.958;8.284;2022-08-25T11:58:21;100101.16;;;32.16;35.90
30708;BME280;17458;48.958;8.284;2022-08-25T12:00:58;100081.78;;;31.98;35.72
30708;BME280;17458;48.958;8.284;2022-08-25T12:06:31;100085.63;;;32.15;35.60
30708;BME280;17458;48.958;8.284;2022-08-25T12:09:19;100084.72;;;31.72;36.15
30708;BME280;17458;48.958;8.284;2022-08-25T12:12:36;100081.59;;;31.81;35.53
30708;BME280;17458;48.958;8.284;2022-08-25T12:15:33;100078.03;;;32.43;35.18
30708;BME280;17458;48.958;8.284;2022-08-25T12:21:31;100074.66;;;32.15;35.16
30708;BME280;17458;48.958;8.284;2022-08-25T12:24:20;100063.19;;;32.27;35.17
30708;BME280;17458;48.958;8.284;2022-08-25T12:27:29;100063.94;;;32.30;34.81
30708;BME280;17458;48.958;8.284;2022-08-25T12:30:25;100063.13;;;32.49;34.36
30708;BME280;17458;48.958;8.284;2022-08-25T12:35:57;100069.03;;;32.39;34.35
30708;BME280;17458;48.958;8.284;2022-08-25T12:38:49;100058.38;;;32.52;34.47
30708;BME280;17458;48.958;8.284;2022-08-25T12:41:34;100061.56;;;32.84;34.24
30708;BME280;17458;48.958;8.284;2022-08-25T12:44:35;100061.59;;;32.62;33.76
30708;BME280;17458;48.958;8.284;2022-08-25T12:53:30;100053.91;;;32.08;34.51
30708;BME280;17458;48.958;8.284;2022-08-25T13:05:19;100051.03;;;33.32;33.28
30708;BME280;17458;48.958;8.284;2022-08-25T13:08:44;100042.25;;;33.04;33.05
30708;BME280;17458;48.958;8.284;2022-08-25T13:11:32;100033.09;;;32.85;33.60
30708;BME280;17458;48.958;8.284;2022-08-25T13:17:23;100029.47;;;33.03;32.81
30708;BME280;17458;48.958;8.284;2022-08-25T13:20:16;100029.38;;;32.65;33.16
30708;BME280;17458;48.958;8.284;2022-08-25T13:23:01;100017.81;;;33.17;32.76
30708;BME280;17458;48.958;8.284;2022-08-25T13:25:48;100025.16;;;33.16;32.79
30708;BME280;17458;48.958;8.284;2022-08-25T13:28:38;100018.28;;;33.45;32.34
30708;BME280;17458;48.958;8.284;2022-08-25T13:31:23;100016.56;;;33.80;32.01
30708;BME280;17458;48.958;8.284;2022-08-25T13:34:17;100021.44;;;33.73;31.74
30708;BME280;17458;48.958;8.284;2022-08-25T13:37:10;100011.44;;;33.54;31.90
30708;BME280;17458;48.958;8.284;2022-08-25T13:43:09;99995.88;;;33.15;32.77
30708;BME280;17458;48.958;8.284;2022-08-25T13:45:53;99992.50;;;32.90;32.66
30708;BME280;17458;48.958;8.284;2022-08-25T13:48:40;99994.44;;;33.27;32.26
30708;BME280;17458;48.958;8.284;2022-08-25T13:51:26;99994.75;;;33.19;32.11
30708;BME280;17458;48.958;8.284;2022-08-25T13:54:24;99993.06;;;33.54;31.43
30708;BME280;17458;48.958;8.284;2022-08-25T14:00:05;99991.00;;;33.40;31.91
30708;BME280;17458;48.958;8.284;2022-08-25T14:02:52;99977.59;;;33.52;32.29
30708;BME280;17458;48.958;8.284;2022-08-25T14:05:40;99975.84;;;33.68;32.33
30708;BME280;17458;48.958;8.284;2022-08-25T14:08:30;99966.91;;;33.63;32.36
30708;BME280;17458;48.958;8.284;2022-08-25T14:11:32;99972.97;;;33.52;32.26
30708;BME280;17458;48.958;8.284;2022-08-25T14:17:09;99968.63;;;33.65;31.78
30708;BME280;17458;48.958;8.284;2022-08-25T14:19:54;99976.53;;;33.54;31.92
30708;BME280;17458;48.958;8.284;2022-08-25T14:22:38;99972.00;;;33.53;32.32
30708;BME280;17458;48.958;8.284;2022-08-25T14:25:23;99966.25;;;33.76;31.07
30708;BME280;17458;48.958;8.284;2022-08-25T14:28:16;99967.00;;;33.61;31.58
30708;BME280;17458;48.958;8.284;2022-08-25T14:31:05;99964.41;;;33.75;32.06
30708;BME280;17458;48.958;8.284;2022-08-25T14:33:57;99965.38;;;33.74;31.50
30708;BME280;17458;48.958;8.284;2022-08-25T14:36:42;99964.03;;;33.47;31.88
30708;BME280;17458;48.958;8.284;2022-08-25T14:39:27;99964.50;;;33.74;31.56
30708;BME280;17458;48.958;8.284;2022-08-25T14:42:12;99958.06;;;33.92;31.12
30708;BME280;17458;48.958;8.284;2022-08-25T14:44:56;99942.38;;;33.75;31.00
30708;BME280;17458;48.958;8.284;2022-08-25T14:47:41;99949.88;;;33.91;31.48
30708;BME280;17458;48.958;8.284;2022-08-25T14:50:25;99952.88;;;33.86;31.29
30708;BME280;17458;48.958;8.284;2022-08-25T14:53:10;99946.44;;;33.32;31.40
30708;BME280;17458;48.958;8.284;2022-08-25T14:55:54;99938.88;;;33.55;31.56
30708;BME280;17458;48.958;8.284;2022-08-25T14:58:39;99951.44;;;33.60;31.49
30708;BME280;17458;48.958;8.284;2022-08-25T15:01:24;99941.06;;;34.01;31.08
30708;BME280;17458;48.958;8.284;2022-08-25T15:04:15;99936.94;;;33.93;31.02
30708;BME280;17458;48.958;8.284;2022-08-25T15:07:04;99939.09;;;33.86;31.75
30708;BME280;17458;48.958;8.284;2022-08-25T15:10:10;99927.69;;;33.58;31.48
30708;BME280;17458;48.958;8.284;2022-08-25T15:12:54;99927.38;;;33.64;31.25
30708;BME280;17458;48.958;8.284;2022-08-25T15:15:42;99928.56;;;33.77;31.41
30708;BME280;17458;48.958;8.284;2022-08-25T15:18:27;99922.25;;;33.92;31.31
30708;BME280;17458;48.958;8.284;2022-08-25T15:21:11;99924.78;;;33.79;31.35
30708;BME280;17458;48.958;8.284;2022-08-25T15:23:55;99912.25;;;33.72;31.26
30708;BME280;17458;48.958;8.284;2022-08-25T15:26:51;99922.03;;;33.61;31.43
30708;BME280;17458;48.958;8.284;2022-08-25T15:29:36;99922.72;;;34.00;31.18
30708;BME280;17458;48.958;8.284;2022-08-25T15:32:20;99911.28;;;33.73;30.87
30708;BME280;17458;48.958;8.284;2022-08-25T15:35:05;99915.22;;;33.51;31.67
30708;BME280;17458;48.958;8.284;2022-08-25T15:37:49;99907.72;;;33.54;31.27
30708;BME280;17458;48.958;8.284;2022-08-25T15:40:34;99901.88;;;33.60;31.61
30708;BME280;17458;48.958;8.284;2022-08-25T15:43:20;99909.38;;;33.39;31.60
30708;BME280;17458;48.958;8.284;2022-08-25T15:46:05;99904.31;;;33.30;31.58
30708;BME280;17458;48.958;8.284;2022-08-25T15:48:50;99905.66;;;33.40;31.50
30708;BME280;17458;48.958;8.284;2022-08-25T15:51:34;99902.16;;;33.37;31.42
30708;BME280;17458;48.958;8.284;2022-08-25T15:54:19;99902.97;;;33.56;31.52
30708;BME280;17458;48.958;8.284;2022-08-25T15:57:03;99894.66;;;33.58;31.35
30708;BME280;17458;48.958;8.284;2022-08-25T15:59:47;99899.69;;;33.50;31.43
30708;BME280;17458;48.958;8.284;2022-08-25T16:02:31;99900.22;;;33.39;31.07
30708;BME280;17458;48.958;8.284;2022-08-25T16:05:17;99892.38;;;33.49;31.21
30708;BME280;17458;48.958;8.284;2022-08-25T16:08:01;99897.09;;;33.28;31.60